createdAt,value
2018-04-22T00:01:25.957Z,9.99
2018-04-22T00:02:25.870Z,10.03
2018-04-22T00:04:18.693Z,9.91
2018-04-22T00:05:18.566Z,9.85
2018-04-22T00:07:11.439Z,9.87
2018-04-22T00:08:11.319Z,9.88
2018-04-22T00:10:04.159Z,9.85
2018-04-22T00:11:04.072Z,9.77
2018-04-22T00:12:57.346Z,9.72
2018-04-22T00:13:57.246Z,9.66
2018-04-22T00:15:50.070Z,9.72
2018-04-22T00:16:49.979Z,9.67
2018-04-22T00:18:42.826Z,9.67
2018-04-22T00:19:42.772Z,9.73
2018-04-22T00:21:35.597Z,9.72
2018-04-22T00:22:35.479Z,9.69
2018-04-22T00:24:28.315Z,9.66
2018-04-22T00:25:28.223Z,9.73
2018-04-22T00:27:21.084Z,9.80
2018-04-22T00:28:20.975Z,9.62
2018-04-22T00:30:14.321Z,9.65
2018-04-22T00:31:13.723Z,9.72
2018-04-22T00:33:06.591Z,9.69
2018-04-22T00:34:06.477Z,9.63
2018-04-22T00:35:59.329Z,9.69
2018-04-22T00:36:59.257Z,9.66
2018-04-22T00:38:52.082Z,9.55
2018-04-22T00:39:51.994Z,9.47
2018-04-22T00:41:44.828Z,9.50
2018-04-22T00:42:44.721Z,9.50
2018-04-22T00:44:37.595Z,9.55
2018-04-22T00:45:37.484Z,9.47
2018-04-22T00:47:30.330Z,9.37
2018-04-22T00:48:30.211Z,9.37
2018-04-22T00:50:23.067Z,9.45
2018-04-22T00:51:22.966Z,9.41
2018-04-22T00:53:15.937Z,9.34
2018-04-22T00:54:15.863Z,9.33
2018-04-22T00:56:08.674Z,9.32
2018-04-22T00:57:08.597Z,9.40
2018-04-22T00:59:01.432Z,9.36
2018-04-22T01:00:01.323Z,9.27
2018-04-22T01:01:54.586Z,9.34
2018-04-22T01:02:54.504Z,9.29
2018-04-22T01:04:47.554Z,9.29
2018-04-22T01:05:47.226Z,9.22
2018-04-22T01:07:40.073Z,9.24
2018-04-22T01:08:39.973Z,9.26
2018-04-22T01:10:33.046Z,9.32
2018-04-22T01:11:32.946Z,9.26
2018-04-22T01:13:26.624Z,9.23
2018-04-22T01:14:26.506Z,9.22
2018-04-22T01:16:19.353Z,9.18
2018-04-22T01:17:19.247Z,9.04
2018-04-22T01:19:12.111Z,9.03
2018-04-22T01:20:12.027Z,9.01
2018-04-22T01:22:04.853Z,9.04
2018-04-22T01:23:04.751Z,9.01
2018-04-22T01:24:58.224Z,9.08
2018-04-22T01:25:58.123Z,9.12
2018-04-22T01:27:50.995Z,9.08
2018-04-22T01:28:50.879Z,9.09
2018-04-22T01:30:43.724Z,9.08
2018-04-22T01:31:43.618Z,8.98
2018-04-22T01:33:36.456Z,9.01
2018-04-22T01:34:36.369Z,8.99
2018-04-22T01:36:29.267Z,8.95
2018-04-22T01:37:29.128Z,8.93
2018-04-22T01:39:21.956Z,8.92
2018-04-22T01:40:21.865Z,8.92
2018-04-22T01:42:14.730Z,8.90
2018-04-22T01:43:14.630Z,8.89
2018-04-22T01:45:07.570Z,8.92
2018-04-22T01:46:07.482Z,8.95
2018-04-22T01:48:00.592Z,8.88
2018-04-22T01:49:00.432Z,8.89
2018-04-22T01:50:53.373Z,8.88
2018-04-22T01:51:53.294Z,8.72
2018-04-22T01:53:46.146Z,8.77
2018-04-22T01:54:46.026Z,8.74
2018-04-22T01:56:38.878Z,8.78
2018-04-22T01:57:38.783Z,8.81
2018-04-22T01:59:31.698Z,8.75
2018-04-22T02:00:31.528Z,8.75
2018-04-22T02:02:24.374Z,8.74
2018-04-22T02:03:24.265Z,8.71
2018-04-22T02:05:17.139Z,8.74
2018-04-22T02:06:17.025Z,8.68
2018-04-22T02:08:09.910Z,8.74
2018-04-22T02:09:09.765Z,8.71
2018-04-22T02:11:02.619Z,8.72
2018-04-22T02:12:02.544Z,8.65
2018-04-22T02:13:55.388Z,8.63
2018-04-22T02:14:55.261Z,8.59
2018-04-22T02:16:48.625Z,8.56
2018-04-22T02:17:48.033Z,8.57
2018-04-22T02:19:40.884Z,8.63
2018-04-22T02:20:40.777Z,8.65
2018-04-22T02:22:33.709Z,8.50
2018-04-22T02:23:33.667Z,8.60
2018-04-22T02:25:27.562Z,8.47
2018-04-22T02:26:27.387Z,8.44
2018-04-22T02:28:20.548Z,8.47
2018-04-22T02:29:20.442Z,8.41
2018-04-22T02:31:13.323Z,8.49
2018-04-22T02:32:13.199Z,8.46
2018-04-22T02:34:06.042Z,8.46
2018-04-22T02:35:05.941Z,8.44
2018-04-22T02:36:58.841Z,8.47
2018-04-22T02:37:58.706Z,8.42
2018-04-22T02:39:51.547Z,8.44
2018-04-22T02:40:51.439Z,8.38
2018-04-22T02:42:44.307Z,8.38
2018-04-22T02:43:44.251Z,8.24
2018-04-22T02:45:37.991Z,8.20
2018-04-22T02:46:37.863Z,8.24
2018-04-22T02:48:30.707Z,8.28
2018-04-22T02:49:30.607Z,8.26
2018-04-22T02:51:23.463Z,8.20
2018-04-22T02:52:23.362Z,8.16
2018-04-22T02:54:16.220Z,8.20
2018-04-22T02:55:16.110Z,8.23
2018-04-22T02:57:08.982Z,8.20
2018-04-22T02:58:08.862Z,8.21
2018-04-22T03:00:01.725Z,8.19
2018-04-22T03:01:01.640Z,8.16
2018-04-22T03:02:54.495Z,8.06
2018-04-22T03:03:54.371Z,8.19
2018-04-22T03:05:47.217Z,8.19
2018-04-22T03:06:47.122Z,8.12
2018-04-22T03:08:39.961Z,8.19
2018-04-22T03:09:39.862Z,8.12
2018-04-22T03:11:32.701Z,8.21
2018-04-22T03:12:32.617Z,8.10
2018-04-22T03:14:25.567Z,8.13
2018-04-22T03:15:25.476Z,8.13
2018-04-22T03:17:18.305Z,8.16
2018-04-22T03:18:18.203Z,8.06
2018-04-22T03:20:11.094Z,7.99
2018-04-22T03:21:10.975Z,8.13
2018-04-22T03:23:03.828Z,8.05
2018-04-22T03:24:03.706Z,8.02
2018-04-22T03:25:56.557Z,8.10
2018-04-22T03:26:56.455Z,8.01
2018-04-22T03:28:49.311Z,8.13
2018-04-22T03:29:49.211Z,8.06
2018-04-22T03:31:42.063Z,7.94
2018-04-22T03:32:41.959Z,8.01
2018-04-22T03:34:34.813Z,8.02
2018-04-22T03:35:34.706Z,8.01
2018-04-22T03:37:27.562Z,7.92
2018-04-22T03:38:27.452Z,8.01
2018-04-22T03:40:20.824Z,8.04
2018-04-22T03:41:20.215Z,8.01
2018-04-22T03:43:13.054Z,7.99
2018-04-22T03:44:12.962Z,8.02
2018-04-22T03:46:05.819Z,8.06
2018-04-22T03:47:05.709Z,8.16
2018-04-22T03:48:58.553Z,7.92
2018-04-22T03:49:58.483Z,7.94
2018-04-22T03:51:51.341Z,7.88
2018-04-22T03:52:51.215Z,7.94
2018-04-22T03:54:44.073Z,7.86
2018-04-22T03:55:43.965Z,7.84
2018-04-22T03:57:36.819Z,7.96
2018-04-22T03:58:36.713Z,7.81
2018-04-22T04:00:29.580Z,7.77
2018-04-22T04:01:29.449Z,7.86
2018-04-22T04:03:22.289Z,7.88
2018-04-22T04:04:22.207Z,7.95
2018-04-22T04:06:15.066Z,7.81
2018-04-22T04:07:14.980Z,7.78
2018-04-22T04:09:07.815Z,7.80
2018-04-22T04:10:07.709Z,7.77
2018-04-22T04:12:00.586Z,7.74
2018-04-22T04:13:00.461Z,7.74
2018-04-22T04:14:53.313Z,7.78
2018-04-22T04:15:53.217Z,7.73
2018-04-22T04:17:46.174Z,7.77
2018-04-22T04:18:46.070Z,7.77
2018-04-22T04:20:38.928Z,7.78
2018-04-22T04:21:38.798Z,7.77
2018-04-22T04:23:31.675Z,7.80
2018-04-22T04:24:31.551Z,7.78
2018-04-22T04:26:24.412Z,7.81
2018-04-22T04:27:24.310Z,7.91
2018-04-22T04:29:17.193Z,7.87
2018-04-22T04:30:17.051Z,7.86
2018-04-22T04:32:09.897Z,7.95
2018-04-22T04:33:09.800Z,7.95
2018-04-22T04:35:02.673Z,7.92
2018-04-22T04:36:02.637Z,7.98
2018-04-22T04:37:55.428Z,8.05
2018-04-22T04:38:55.307Z,8.12
2018-04-22T04:40:48.151Z,8.04
2018-04-22T04:41:48.079Z,8.04
2018-04-22T04:43:40.904Z,8.09
2018-04-22T04:44:40.798Z,8.05
2018-04-22T04:46:33.747Z,8.06
2018-04-22T04:47:33.646Z,7.98
2018-04-22T04:49:26.525Z,8.04
2018-04-22T04:50:26.402Z,8.12
2018-04-22T04:52:19.293Z,8.14
2018-04-22T04:53:19.154Z,8.24
2018-04-22T04:55:12.080Z,8.31
2018-04-22T04:56:11.899Z,8.31
2018-04-22T04:58:04.756Z,8.23
2018-04-22T04:59:04.649Z,8.23
2018-04-22T05:00:58.016Z,8.28
2018-04-22T05:01:57.400Z,8.38
2018-04-22T05:03:50.243Z,8.41
2018-04-22T05:04:50.151Z,8.44
2018-04-22T05:06:43.023Z,8.42
2018-04-22T05:07:42.918Z,8.46
2018-04-22T05:09:35.766Z,8.50
2018-04-22T05:10:35.677Z,8.50
2018-04-22T05:12:28.524Z,8.55
2018-04-22T05:13:28.424Z,8.52
2018-04-22T05:15:21.396Z,8.44
2018-04-22T05:16:21.251Z,8.47
2018-04-22T05:18:14.093Z,8.49
2018-04-22T05:19:13.999Z,8.59
2018-04-22T05:21:06.901Z,8.52
2018-04-22T05:22:06.769Z,8.62
2018-04-22T05:23:59.602Z,8.60
2018-04-22T05:24:59.518Z,8.63
2018-04-22T05:26:52.367Z,8.71
2018-04-22T05:27:52.250Z,8.71
2018-04-22T05:29:45.621Z,8.83
2018-04-22T05:30:45.518Z,8.81
2018-04-22T05:32:38.529Z,8.85
2018-04-22T05:33:38.262Z,8.93
2018-04-22T05:35:31.101Z,8.96
2018-04-22T05:36:31.103Z,9.06
2018-04-22T05:38:23.896Z,9.06
2018-04-22T05:39:23.754Z,9.18
2018-04-22T05:41:16.612Z,9.19
2018-04-22T05:42:16.508Z,9.15
2018-04-22T05:44:09.374Z,9.23
2018-04-22T05:45:09.257Z,9.29
2018-04-22T05:47:02.101Z,9.34
2018-04-22T05:48:02.009Z,9.44
2018-04-22T05:49:54.904Z,9.55
2018-04-22T05:50:54.768Z,9.62
2018-04-22T05:52:47.613Z,9.66
2018-04-22T05:53:47.502Z,9.80
2018-04-22T05:55:40.382Z,9.87
2018-04-22T05:56:40.276Z,9.88
2018-04-22T05:58:33.119Z,9.93
2018-04-22T05:59:33.005Z,10.01
2018-04-22T06:01:26.900Z,10.09
2018-04-22T06:02:26.797Z,10.16
2018-04-22T06:04:19.652Z,10.28
2018-04-22T06:05:19.528Z,10.36
2018-04-22T06:07:12.379Z,10.39
2018-04-22T06:08:12.277Z,10.45
2018-04-22T06:10:08.976Z,10.65
2018-04-22T06:11:08.506Z,10.68
2018-04-22T06:13:00.538Z,10.73
2018-04-22T06:14:00.445Z,10.79
2018-04-22T06:15:53.412Z,10.87
2018-04-22T06:16:53.286Z,11.00
2018-04-22T06:18:46.142Z,11.09
2018-04-22T06:19:46.036Z,11.16
2018-04-22T06:21:38.920Z,11.18
2018-04-22T06:22:38.801Z,11.37
2018-04-22T06:24:31.636Z,11.41
2018-04-22T06:25:31.546Z,11.56
2018-04-22T06:27:24.416Z,11.62
2018-04-22T06:28:24.301Z,11.59
2018-04-22T06:30:17.145Z,11.74
2018-04-22T06:31:17.040Z,11.88
2018-04-22T06:33:09.912Z,11.96
2018-04-22T06:34:09.834Z,12.04
2018-04-22T06:36:02.666Z,12.21
2018-04-22T06:37:02.541Z,12.13
2018-04-22T06:38:55.420Z,12.30
2018-04-22T06:39:55.292Z,12.32
2018-04-22T06:41:48.152Z,12.40
2018-04-22T06:42:48.044Z,12.50
2018-04-22T06:44:40.885Z,12.69
2018-04-22T06:45:40.789Z,12.62
2018-04-22T06:47:34.180Z,12.84
2018-04-22T06:48:34.073Z,12.86
2018-04-22T06:50:26.899Z,12.88
2018-04-22T06:51:26.809Z,13.01
2018-04-22T06:53:21.292Z,13.08
2018-04-22T06:54:21.091Z,13.17
2018-04-22T06:56:13.936Z,13.32
2018-04-22T06:57:13.871Z,13.38
2018-04-22T06:59:06.713Z,13.63
2018-04-22T07:00:06.604Z,13.60
2018-04-22T07:01:59.451Z,13.67
2018-04-22T07:02:59.341Z,13.67
2018-04-22T07:04:52.228Z,13.90
2018-04-22T07:05:52.095Z,13.96
2018-04-22T07:07:44.945Z,14.05
2018-04-22T07:08:44.853Z,14.11
2018-04-22T07:10:37.719Z,14.13
2018-04-22T07:11:37.680Z,14.15
2018-04-22T07:13:30.429Z,14.28
2018-04-22T07:14:30.337Z,14.37
2018-04-22T07:16:23.615Z,14.45
2018-04-22T07:17:23.507Z,14.55
2018-04-22T07:19:16.866Z,14.64
2018-04-22T07:20:16.267Z,14.70
2018-04-22T07:22:09.084Z,14.66
2018-04-22T07:23:08.992Z,14.79
2018-04-22T07:25:01.875Z,14.82
2018-04-22T07:26:01.743Z,14.73
2018-04-22T07:27:54.618Z,14.86
2018-04-22T07:28:54.492Z,14.89
2018-04-22T07:30:47.390Z,15.08
2018-04-22T07:31:47.255Z,15.17
2018-04-22T07:33:40.084Z,15.25
2018-04-22T07:34:40.005Z,15.23
2018-04-22T07:36:32.871Z,15.27
2018-04-22T07:37:32.735Z,15.44
2018-04-22T07:39:25.593Z,15.45
2018-04-22T07:40:25.527Z,15.52
2018-04-22T07:42:18.366Z,15.52
2018-04-22T07:43:18.259Z,15.50
2018-04-22T07:45:11.090Z,15.63
2018-04-22T07:46:10.997Z,15.80
2018-04-22T07:48:03.845Z,15.88
2018-04-22T07:49:03.749Z,15.93
2018-04-22T07:50:56.581Z,15.91
2018-04-22T07:51:56.491Z,15.95
2018-04-22T07:53:49.862Z,16.08
2018-04-22T07:54:49.748Z,16.18
2018-04-22T07:56:42.597Z,16.28
2018-04-22T07:57:42.507Z,16.40
2018-04-22T07:59:35.354Z,16.47
2018-04-22T08:00:35.258Z,16.58
2018-04-22T08:02:28.095Z,16.58
2018-04-22T08:03:28.001Z,16.69
2018-04-22T08:05:20.865Z,16.87
2018-04-22T08:06:20.755Z,16.90
2018-04-22T08:08:13.624Z,17.07
2018-04-22T08:09:13.517Z,17.10
2018-04-22T08:11:06.382Z,17.34
2018-04-22T08:12:06.264Z,17.37
2018-04-22T08:13:59.132Z,17.39
2018-04-22T08:14:59.017Z,17.43
2018-04-22T08:16:51.857Z,17.53
2018-04-22T08:17:51.763Z,17.57
2018-04-22T08:19:44.637Z,17.68
2018-04-22T08:20:44.511Z,17.68
2018-04-22T08:22:37.345Z,17.76
2018-04-22T08:23:37.257Z,17.88
2018-04-22T08:25:30.126Z,18.09
2018-04-22T08:26:29.999Z,18.18
2018-04-22T08:28:23.919Z,18.31
2018-04-22T08:29:24.181Z,18.45
2018-04-22T08:31:15.609Z,18.48
2018-04-22T08:32:15.507Z,18.61
2018-04-22T08:34:08.361Z,18.78
2018-04-22T08:35:08.248Z,18.74
2018-04-22T08:37:01.126Z,18.81
2018-04-22T08:38:01.005Z,18.78
2018-04-22T08:39:53.847Z,18.94
2018-04-22T08:40:53.746Z,19.07
2018-04-22T08:42:46.598Z,18.98
2018-04-22T08:43:46.497Z,18.97
2018-04-22T08:45:39.356Z,19.05
2018-04-22T08:46:39.256Z,19.13
2018-04-22T08:48:32.099Z,19.32
2018-04-22T08:49:32.011Z,19.30
2018-04-22T08:51:24.846Z,19.49
2018-04-22T08:52:24.762Z,19.52
2018-04-22T08:54:17.607Z,19.57
2018-04-22T08:55:17.507Z,19.59
2018-04-22T08:57:10.357Z,19.50
2018-04-22T08:58:10.264Z,19.62
2018-04-22T09:00:03.105Z,19.72
2018-04-22T09:01:03.012Z,19.79
2018-04-22T09:02:55.851Z,19.90
2018-04-22T09:03:55.744Z,20.02
2018-04-22T09:05:48.622Z,20.14
2018-04-22T09:06:48.500Z,20.23
2018-04-22T09:08:41.363Z,20.15
2018-04-22T09:09:41.273Z,20.19
2018-04-22T09:11:34.095Z,20.41
2018-04-22T09:12:33.999Z,20.49
2018-04-22T09:14:26.852Z,20.49
2018-04-22T09:15:26.758Z,20.49
2018-04-22T09:17:19.608Z,20.58
2018-04-22T09:18:19.507Z,20.61
2018-04-22T09:20:12.365Z,20.61
2018-04-22T09:21:12.263Z,20.64
2018-04-22T09:23:05.090Z,20.82
2018-04-22T09:24:05.001Z,20.90
2018-04-22T09:25:57.862Z,21.05
2018-04-22T09:26:57.747Z,21.05
2018-04-22T09:28:50.582Z,21.28
2018-04-22T09:29:50.514Z,21.28
2018-04-22T09:31:43.350Z,21.35
2018-04-22T09:32:43.248Z,21.41
2018-04-22T09:34:36.113Z,21.53
2018-04-22T09:35:36.018Z,21.58
2018-04-22T09:37:28.871Z,21.55
2018-04-22T09:38:28.761Z,21.60
2018-04-22T09:40:21.620Z,21.58
2018-04-22T09:41:21.509Z,21.67
2018-04-22T09:43:14.364Z,21.80
2018-04-22T09:44:14.264Z,21.85
2018-04-22T09:46:07.117Z,21.88
2018-04-22T09:47:07.017Z,22.01
2018-04-22T09:48:59.832Z,21.81
2018-04-22T09:49:59.779Z,21.91
2018-04-22T09:51:52.602Z,21.90
2018-04-22T09:52:52.505Z,21.91
2018-04-22T09:54:45.690Z,21.88
2018-04-22T09:55:45.624Z,21.85
2018-04-22T09:57:38.427Z,21.94
2018-04-22T09:58:38.338Z,21.97
2018-04-22T10:00:32.193Z,22.11
2018-04-22T10:01:32.116Z,22.23
2018-04-22T10:03:25.464Z,22.37
2018-04-22T10:04:24.939Z,22.56
2018-04-22T10:06:19.315Z,22.66
2018-04-22T10:07:19.214Z,22.64
2018-04-22T10:09:12.609Z,22.41
2018-04-22T10:10:12.541Z,22.28
2018-04-22T10:12:05.320Z,22.01
2018-04-22T10:13:05.222Z,21.84
2018-04-22T10:14:58.176Z,22.04
2018-04-22T10:15:58.072Z,22.22
2018-04-22T10:17:50.908Z,21.93
2018-04-22T10:18:50.831Z,22.00
2018-04-22T10:20:43.673Z,22.38
2018-04-22T10:21:43.569Z,22.49
2018-04-22T10:23:39.543Z,22.58
2018-04-22T10:24:39.316Z,22.48
2018-04-22T10:26:33.772Z,22.23
2018-04-22T10:27:33.688Z,22.27
2018-04-22T10:29:28.098Z,22.31
2018-04-22T10:30:27.976Z,22.38
2018-04-22T10:32:20.803Z,22.48
2018-04-22T10:33:20.729Z,22.33
2018-04-22T10:35:14.081Z,22.33
2018-04-22T10:36:14.000Z,22.33
2018-04-22T10:38:07.371Z,22.30
2018-04-22T10:39:07.240Z,22.33
2018-04-22T10:41:00.093Z,22.34
2018-04-22T10:41:59.994Z,22.44
2018-04-22T10:43:52.938Z,22.59
2018-04-22T10:44:52.945Z,22.88
2018-04-22T10:46:45.728Z,23.08
2018-04-22T10:47:45.596Z,23.11
2018-04-22T10:49:38.426Z,23.42
2018-04-22T10:50:38.354Z,23.36
2018-04-22T10:52:31.213Z,23.26
2018-04-22T10:53:31.114Z,23.23
2018-04-22T10:55:23.925Z,23.06
2018-04-22T10:56:23.843Z,23.07
2018-04-22T10:58:16.798Z,23.04
2018-04-22T10:59:16.699Z,23.08
2018-04-22T11:01:09.578Z,23.13
2018-04-22T11:02:09.460Z,23.08
2018-04-22T11:04:02.394Z,23.08
2018-04-22T11:05:02.389Z,23.14
2018-04-22T11:06:55.153Z,23.17
2018-04-22T11:07:55.044Z,23.17
2018-04-22T11:09:48.011Z,23.44
2018-04-22T11:10:47.899Z,23.60
2018-04-22T11:12:41.373Z,23.79
2018-04-22T11:13:41.252Z,23.82
2018-04-22T11:15:34.893Z,23.94
2018-04-22T11:16:34.534Z,24.00
2018-04-22T11:18:27.897Z,24.06
2018-04-22T11:19:27.795Z,23.98
2018-04-22T11:21:20.724Z,23.76
2018-04-22T11:22:20.638Z,23.78
2018-04-22T11:24:13.504Z,23.54
2018-04-22T11:25:13.384Z,23.51
2018-04-22T11:27:06.333Z,23.29
2018-04-22T11:28:06.401Z,23.28
2018-04-22T11:29:59.218Z,23.26
2018-04-22T11:30:59.125Z,23.28
2018-04-22T11:32:52.027Z,23.26
2018-04-22T11:33:51.939Z,23.28
2018-04-22T11:35:44.910Z,23.39
2018-04-22T11:36:44.799Z,23.36
2018-04-22T11:38:37.747Z,23.36
2018-04-22T11:39:37.662Z,23.22
2018-04-22T11:41:30.638Z,23.45
2018-04-22T11:42:30.513Z,23.44
2018-04-22T11:44:23.434Z,23.44
2018-04-22T11:45:23.362Z,23.56
2018-04-22T11:47:16.316Z,23.63
2018-04-22T11:48:16.203Z,23.60
2018-04-22T11:50:09.165Z,23.74
2018-04-22T11:51:09.065Z,23.81
2018-04-22T11:53:02.008Z,23.96
2018-04-22T11:54:01.904Z,24.06
2018-04-22T11:55:54.863Z,23.82
2018-04-22T11:56:54.771Z,23.66
2018-04-22T11:58:47.716Z,23.71
2018-04-22T11:59:47.620Z,23.94
2018-04-22T12:01:40.583Z,24.23
2018-04-22T12:02:40.472Z,24.37
2018-04-22T12:04:33.417Z,24.31
2018-04-22T12:05:33.316Z,24.31
2018-04-22T12:07:26.286Z,24.37
2018-04-22T12:08:26.168Z,24.31
2018-04-22T12:10:19.116Z,24.23
2018-04-22T12:11:19.020Z,24.26
2018-04-22T12:13:11.988Z,24.37
2018-04-22T12:14:11.877Z,24.29
2018-04-22T12:16:04.841Z,24.31
2018-04-22T12:17:04.784Z,24.21
2018-04-22T12:18:58.614Z,24.07
2018-04-22T12:19:58.505Z,24.11
2018-04-22T12:21:51.462Z,24.19
2018-04-22T12:22:51.352Z,24.41
2018-04-22T12:24:44.330Z,24.38
2018-04-22T12:25:44.208Z,24.55
2018-04-22T12:27:37.560Z,24.97
2018-04-22T12:28:37.464Z,25.14
2018-04-22T12:30:30.741Z,25.55
2018-04-22T12:31:30.709Z,25.55
2018-04-22T12:33:24.642Z,25.52
2018-04-22T12:34:23.814Z,25.52
2018-04-22T12:36:16.425Z,25.46
2018-04-22T12:37:16.342Z,25.41
2018-04-22T12:39:11.430Z,25.23
2018-04-22T12:40:10.997Z,25.23
2018-04-22T12:42:11.145Z,25.21
2018-04-22T12:43:11.037Z,25.26
2018-04-22T12:45:03.973Z,25.48
2018-04-22T12:46:03.914Z,25.43
2018-04-22T12:47:57.948Z,25.61
2018-04-22T12:48:57.192Z,25.45
2018-04-22T12:50:49.805Z,25.08
2018-04-22T12:51:49.704Z,25.06
2018-04-22T12:53:42.758Z,25.27
2018-04-22T12:54:42.680Z,25.40
2018-04-22T12:56:35.626Z,25.30
2018-04-22T12:57:35.525Z,25.23
2018-04-22T12:59:29.205Z,24.99
2018-04-22T13:00:29.369Z,25.15
2018-04-22T13:02:21.321Z,25.31
2018-04-22T13:03:21.211Z,25.40
2018-04-22T13:05:14.136Z,25.36
2018-04-22T13:06:14.164Z,25.36
2018-04-22T13:08:12.033Z,25.21
2018-04-22T13:09:11.941Z,25.11
2018-04-22T13:11:05.388Z,24.99
2018-04-22T13:12:05.301Z,24.97
2018-04-22T13:13:59.015Z,24.76
2018-04-22T13:14:58.848Z,24.85
2018-04-22T13:16:51.078Z,24.53
2018-04-22T13:17:50.991Z,24.51
2018-04-22T13:19:43.967Z,24.37
2018-04-22T13:20:43.859Z,24.23
2018-04-22T13:22:37.712Z,24.25
2018-04-22T13:23:37.440Z,24.37
2018-04-22T13:25:30.372Z,24.40
2018-04-22T13:26:30.278Z,24.48
2018-04-22T13:28:23.226Z,24.82
2018-04-22T13:29:23.123Z,24.94
2018-04-22T13:31:16.073Z,24.93
2018-04-22T13:32:15.994Z,24.82
2018-04-22T13:34:10.790Z,25.01
2018-04-22T13:35:10.672Z,25.21
2018-04-22T13:37:03.628Z,25.26
2018-04-22T13:38:03.522Z,25.28
2018-04-22T13:39:56.481Z,25.55
2018-04-22T13:40:56.618Z,25.68
2018-04-22T13:42:49.314Z,25.51
2018-04-22T13:43:49.304Z,25.45
2018-04-22T13:45:42.194Z,25.58
2018-04-22T13:46:42.079Z,25.48
2018-04-22T13:48:35.035Z,25.45
2018-04-22T13:49:34.934Z,25.36
2018-04-22T13:51:27.887Z,25.45
2018-04-22T13:52:28.327Z,25.70
2018-04-22T13:54:21.300Z,26.01
2018-04-22T13:55:21.140Z,26.20
2018-04-22T13:57:14.096Z,26.20
2018-04-22T13:58:14.015Z,26.15
2018-04-22T14:00:09.936Z,26.11
2018-04-22T14:01:09.825Z,26.12
2018-04-22T14:03:03.184Z,26.43
2018-04-22T14:04:03.036Z,26.27
2018-04-22T14:06:04.069Z,25.86
2018-04-22T14:06:55.994Z,25.92
2018-04-22T14:08:48.469Z,26.05
2018-04-22T14:09:48.378Z,26.34
2018-04-22T14:11:44.600Z,26.64
2018-04-22T14:12:44.513Z,26.65
2018-04-22T14:14:38.515Z,26.67
2018-04-22T14:15:38.372Z,26.65
2018-04-22T14:17:31.268Z,26.67
2018-04-22T14:18:31.846Z,26.67
2018-04-22T14:20:24.601Z,26.93
2018-04-22T14:21:24.516Z,27.10
2018-04-22T14:23:17.456Z,27.42
2018-04-22T14:24:17.365Z,27.66
2018-04-22T14:26:10.292Z,28.06
2018-04-22T14:27:10.209Z,28.17
2018-04-22T14:29:03.159Z,28.19
2018-04-22T14:30:03.050Z,28.31
2018-04-22T14:31:55.989Z,28.31
2018-04-22T14:32:55.903Z,28.09
2018-04-22T14:34:48.949Z,27.76
2018-04-22T14:35:48.864Z,27.75
2018-04-22T14:37:41.822Z,27.82
2018-04-22T14:38:41.716Z,27.70
2018-04-22T14:40:34.675Z,27.72
2018-04-22T14:41:34.558Z,27.47
2018-04-22T14:43:27.556Z,27.32
2018-04-22T14:44:27.411Z,27.13
2018-04-22T14:46:20.868Z,26.90
2018-04-22T14:47:20.785Z,26.82
2018-04-22T14:49:13.797Z,26.67
2018-04-22T14:50:13.732Z,26.73
2018-04-22T14:52:06.590Z,26.68
2018-04-22T14:53:06.493Z,26.45
2018-04-22T14:54:59.443Z,26.10
2018-04-22T14:55:59.328Z,26.03
2018-04-22T14:57:52.298Z,26.12
2018-04-22T14:58:52.178Z,26.03
2018-04-22T15:00:45.148Z,25.88
2018-04-22T15:01:45.032Z,25.73
2018-04-22T15:03:38.028Z,25.11
2018-04-22T15:04:37.909Z,24.93
2018-04-22T15:06:30.831Z,24.74
2018-04-22T15:07:30.752Z,24.66
2018-04-22T15:09:23.674Z,24.63
2018-04-22T15:10:23.600Z,24.60
2018-04-22T15:12:16.563Z,24.58
2018-04-22T15:13:16.453Z,24.51
2018-04-22T15:15:09.390Z,24.65
2018-04-22T15:16:09.326Z,24.74
2018-04-22T15:18:02.154Z,24.93
2018-04-22T15:19:02.046Z,24.96
2018-04-22T15:20:54.922Z,24.97
2018-04-22T15:21:54.865Z,24.93
2018-04-22T15:23:47.648Z,24.89
2018-04-22T15:24:47.559Z,24.94
2018-04-22T15:26:40.429Z,25.09
2018-04-22T15:27:40.289Z,25.16
2018-04-22T15:29:33.135Z,25.23
2018-04-22T15:30:33.090Z,25.19
2018-04-22T15:32:25.906Z,25.26
2018-04-22T15:33:25.830Z,25.12
2018-04-22T15:35:18.646Z,25.26
2018-04-22T15:36:18.542Z,25.21
2018-04-22T15:38:11.424Z,25.15
2018-04-22T15:39:11.325Z,25.19
2018-04-22T15:41:04.228Z,25.23
2018-04-22T15:42:04.146Z,25.21
2018-04-22T15:43:57.531Z,25.36
2018-04-22T15:44:57.417Z,25.33
2018-04-22T15:46:50.235Z,25.33
2018-04-22T15:47:50.163Z,25.43
2018-04-22T15:49:43.003Z,25.41
2018-04-22T15:50:42.912Z,25.36
2018-04-22T15:52:35.758Z,25.27
2018-04-22T15:53:35.675Z,25.18
2018-04-22T15:55:29.527Z,25.22
2018-04-22T15:56:29.135Z,25.18
2018-04-22T15:58:21.974Z,25.30
2018-04-22T15:59:21.874Z,25.34
2018-04-22T16:01:14.767Z,25.27
2018-04-22T16:02:14.655Z,25.18
2018-04-22T16:04:07.466Z,25.27
2018-04-22T16:05:07.463Z,25.08
2018-04-22T16:07:00.734Z,25.08
2018-04-22T16:08:00.678Z,25.06
2018-04-22T16:09:53.498Z,25.09
2018-04-22T16:10:53.387Z,25.19
2018-04-22T16:12:46.246Z,24.99
2018-04-22T16:13:46.174Z,24.97
2018-04-22T16:15:38.981Z,24.91
2018-04-22T16:16:38.881Z,24.89
2018-04-22T16:18:31.724Z,24.82
2018-04-22T16:19:31.625Z,24.84
2018-04-22T16:21:24.491Z,24.81
2018-04-22T16:22:24.394Z,24.75
2018-04-22T16:24:17.230Z,24.68
2018-04-22T16:25:17.124Z,24.65
2018-04-22T16:27:09.973Z,24.56
2018-04-22T16:28:09.899Z,24.51
2018-04-22T16:30:02.762Z,24.43
2018-04-22T16:31:02.631Z,24.41
2018-04-22T16:32:55.471Z,24.40
2018-04-22T16:33:55.375Z,24.52
2018-04-22T16:35:48.242Z,24.38
2018-04-22T16:36:48.121Z,24.41
2018-04-22T16:38:40.960Z,24.38
2018-04-22T16:39:40.891Z,24.28
2018-04-22T16:41:33.739Z,24.33
2018-04-22T16:42:33.759Z,24.26
2018-04-22T16:44:27.380Z,24.33
2018-04-22T16:45:27.306Z,24.36
2018-04-22T16:47:20.142Z,24.21
2018-04-22T16:48:20.047Z,24.26
2018-04-22T16:50:12.880Z,24.13
2018-04-22T16:51:12.799Z,24.16
2018-04-22T16:53:05.664Z,24.08
2018-04-22T16:54:05.540Z,24.10
2018-04-22T16:55:58.390Z,24.03
2018-04-22T16:56:58.307Z,24.08
2018-04-22T16:58:51.140Z,24.11
2018-04-22T16:59:51.564Z,24.07
2018-04-22T17:01:43.872Z,23.96
2018-04-22T17:02:43.792Z,23.96
2018-04-22T17:04:37.145Z,23.73
2018-04-22T17:05:37.054Z,23.81
2018-04-22T17:07:29.909Z,23.67
2018-04-22T17:08:29.824Z,23.59
2018-04-22T17:10:22.807Z,23.52
2018-04-22T17:11:22.669Z,23.41
2018-04-22T17:13:15.544Z,23.34
2018-04-22T17:14:15.411Z,23.22
2018-04-22T17:16:08.240Z,23.13
2018-04-22T17:17:08.154Z,23.10
2018-04-22T17:19:01.012Z,23.01
2018-04-22T17:20:00.903Z,23.01
2018-04-22T17:21:53.847Z,22.83
2018-04-22T17:22:53.753Z,22.81
2018-04-22T17:24:46.613Z,22.68
2018-04-22T17:25:46.516Z,22.74
2018-04-22T17:27:39.349Z,22.66
2018-04-22T17:28:39.282Z,22.61
2018-04-22T17:30:32.331Z,22.48
2018-04-22T17:31:32.198Z,22.49
2018-04-22T17:33:25.037Z,22.41
2018-04-22T17:34:24.952Z,22.34
2018-04-22T17:36:17.804Z,22.22
2018-04-22T17:37:17.713Z,22.11
2018-04-22T17:39:10.543Z,21.66
2018-04-22T17:40:10.474Z,21.55
2018-04-22T17:42:03.325Z,21.34
2018-04-22T17:43:03.211Z,21.26
2018-04-22T17:44:56.053Z,20.79
2018-04-22T17:45:55.960Z,20.60
2018-04-22T17:47:49.302Z,20.44
2018-04-22T17:48:49.209Z,20.19
2018-04-22T17:50:42.061Z,19.92
2018-04-22T17:51:41.964Z,19.79
2018-04-22T17:53:34.798Z,19.52
2018-04-22T17:54:34.711Z,19.16
2018-04-22T17:56:27.588Z,18.85
2018-04-22T17:57:27.456Z,18.66
2018-04-22T17:59:21.866Z,18.27
2018-04-22T18:00:21.743Z,18.13
2018-04-22T18:02:14.612Z,17.91
2018-04-22T18:03:14.493Z,17.86
2018-04-22T18:05:07.348Z,17.69
2018-04-22T18:06:07.242Z,17.54
2018-04-22T18:08:00.633Z,17.53
2018-04-22T18:09:00.500Z,17.45
2018-04-22T18:10:53.358Z,17.30
2018-04-22T18:11:53.252Z,17.25
2018-04-22T18:13:46.104Z,17.14
2018-04-22T18:14:46.009Z,17.20
2018-04-22T18:16:39.678Z,17.17
2018-04-22T18:17:39.568Z,17.14
2018-04-22T18:19:32.416Z,17.14
2018-04-22T18:20:32.324Z,17.01
2018-04-22T18:22:25.185Z,17.01
2018-04-22T18:23:25.067Z,16.99
2018-04-22T18:25:17.911Z,17.01
2018-04-22T18:26:17.827Z,17.01
2018-04-22T18:28:10.684Z,16.99
2018-04-22T18:29:10.562Z,17.13
2018-04-22T18:31:03.418Z,16.97
2018-04-22T18:32:03.338Z,17.06
2018-04-22T18:33:56.180Z,16.98
2018-04-22T18:34:56.068Z,16.97
2018-04-22T18:36:48.966Z,16.92
2018-04-22T18:37:48.847Z,16.87
2018-04-22T18:39:41.682Z,16.65
2018-04-22T18:40:41.580Z,16.62
2018-04-22T18:42:34.409Z,16.65
2018-04-22T18:43:34.325Z,16.62
2018-04-22T18:45:27.715Z,16.69